Time;durP1;ratioP1;P1;durP2;ratioP2;P2;SDS_P1;SDS_P2;PMS_P1;PMS_P2;Temp;Humidity;BMP_temperature;BMP_pressure;BME280_temperature;BME280_humidity;BME280_pressure;Samples;Min_cycle;Max_cycle;Signal;HPM_P1;HPM_P2
2022/07/04 00:00:11;;;;;;;;;26.00;26.00;32.90;41.90;;;;;;5100105;28;8760;-80
2022/07/04 00:02:40;;;;;;;;;26.00;25.33;32.80;41.80;;;;;;5100488;28;8776;-76
2022/07/04 00:05:10;;;;;;;;;25.33;23.33;32.80;41.50;;;;;;5082210;28;11529;-77
2022/07/04 00:07:36;;;;;;;;;29.33;27.67;32.80;41.30;;;;;;5099530;28;11558;-77
2022/07/04 00:10:06;;;;;;;;;24.00;24.00;32.80;41.30;;;;;;5098596;28;11536;-79
2022/07/04 00:12:32;;;;;;;;;32.33;28.67;32.70;41.30;;;;;;5097690;28;8894;-78
2022/07/04 00:14:58;;;;;;;;;22.33;22.33;32.80;42.40;;;;;;5097225;28;8836;-78
2022/07/04 00:17:24;;;;;;;;;30.00;28.67;32.70;41.30;;;;;;5096742;28;8787;-79
2022/07/04 00:19:50;;;;;;;;;26.33;26.33;32.70;41.40;;;;;;5097237;28;8756;-78
2022/07/04 00:22:16;;;;;;;;;27.33;27.33;32.70;41.50;;;;;;5097068;28;8791;-79
2022/07/04 00:24:41;;;;;;;;;26.00;26.00;32.60;41.50;;;;;;5096839;28;9416;-79
2022/07/04 00:27:07;;;;;;;;;27.00;25.00;32.60;41.60;;;;;;5096718;28;8806;-79
2022/07/04 00:29:33;;;;;;;;;22.00;22.00;32.60;41.70;;;;;;5096752;28;8776;-80
2022/07/04 00:31:59;;;;;;;;;26.00;26.00;32.60;41.90;;;;;;5096363;28;8798;-79
2022/07/04 00:34:25;;;;;;;;;29.33;26.67;32.40;42.00;;;;;;5096367;28;8752;-80
2022/07/04 00:36:51;;;;;;;;;26.67;26.33;32.40;42.30;;;;;;5094654;28;8886;-80
2022/07/04 00:39:17;;;;;;;;;25.33;23.67;32.30;42.50;;;;;;5095991;28;11567;-79
2022/07/04 00:41:43;;;;;;;;;23.33;23.33;32.40;42.60;;;;;;5061664;28;8779;-79
2022/07/04 00:44:11;;;;;;;;;26.33;26.33;32.40;42.50;;;;;;5096081;28;8752;-80
2022/07/04 00:46:37;;;;;;;;;23.33;23.00;32.40;42.90;;;;;;5096290;28;8795;-79
2022/07/04 00:49:05;;;;;;;;;29.00;28.67;32.30;43.10;;;;;;5096580;28;11468;-80
2022/07/04 00:51:31;;;;;;;;;24.33;23.00;32.30;43.20;;;;;;5095851;28;11461;-79
2022/07/04 00:53:57;;;;;;;;;27.00;25.33;32.30;43.30;;;;;;5096043;28;8952;-78
2022/07/04 00:56:25;;;;;;;;;23.33;23.33;32.20;43.40;;;;;;5096321;28;11441;-79
2022/07/04 00:58:52;;;;;;;;;25.33;25.00;32.30;43.20;;;;;;5077819;28;11469;-79
2022/07/04 01:01:21;;;;;;;;;26.67;26.33;32.40;43.40;;;;;;5095714;28;8779;-79
2022/07/04 01:03:49;;;;;;;;;25.33;25.33;32.30;43.40;;;;;;5095562;28;11433;-79
2022/07/04 01:06:16;;;;;;;;;27.67;27.67;32.30;43.60;;;;;;5095908;28;11441;-78
2022/07/04 01:08:43;;;;;;;;;23.33;22.00;32.20;43.80;;;;;;5095874;28;9426;-78
2022/07/04 01:11:09;;;;;;;;;26.00;26.00;32.20;43.90;;;;;;5096111;28;11467;-75
2022/07/04 01:13:36;;;;;;;;;25.67;25.67;32.10;44.00;;;;;;5095983;28;11527;-79
2022/07/04 01:16:03;;;;;;;;;27.33;26.33;32.20;44.00;;;;;;5095737;28;11433;-79
2022/07/04 01:18:30;;;;;;;;;26.33;26.00;32.00;44.60;;;;;;5095112;28;11533;-79
2022/07/04 01:20:56;;;;;;;;;24.33;24.00;32.10;44.60;;;;;;5095416;28;11467;-80
2022/07/04 01:23:22;;;;;;;;;29.67;29.67;32.10;44.60;;;;;;5095603;28;11429;-79
2022/07/04 01:25:52;;;;;;;;;26.67;26.67;32.20;44.50;;;;;;5095553;28;8784;-79
2022/07/04 01:28:22;;;;;;;;;22.67;22.67;32.20;44.50;;;;;;5095162;28;8767;-80
2022/07/04 01:30:48;;;;;;;;;28.00;28.00;32.20;44.60;;;;;;5095845;28;11436;-79
2022/07/04 01:33:17;;;;;;;;;26.00;24.67;32.20;44.50;;;;;;5095177;28;8771;-79
2022/07/04 01:35:46;;;;;;;;;24.33;24.33;32.20;44.50;;;;;;5095082;28;8780;-79
2022/07/04 01:38:12;;;;;;;;;29.33;29.33;32.20;44.50;;;;;;5095362;28;11515;-82
2022/07/04 01:40:38;;;;;;;;;25.00;25.00;32.20;44.60;;;;;;5095760;28;11445;-81
2022/07/04 01:43:04;;;;;;;;;25.00;24.33;32.20;44.70;;;;;;5095273;28;8882;-78
2022/07/04 01:45:33;;;;;;;;;27.00;27.00;32.10;44.70;;;;;;5076915;28;8790;-82
2022/07/04 01:47:58;;;;;;;;;29.67;28.00;32.00;44.90;;;;;;5094914;28;8802;-80
2022/07/04 01:50:24;;;;;;;;;27.33;27.33;32.10;46.00;;;;;;5095001;28;8756;-79
2022/07/04 01:52:50;;;;;;;;;27.67;27.67;32.00;45.20;;;;;;5094994;28;9447;-79
2022/07/04 01:55:16;;;;;;;;;33.33;29.67;32.00;45.50;;;;;;5094680;28;8819;-78
2022/07/04 01:57:42;;;;;;;;;24.67;24.67;32.00;45.50;;;;;;5076691;28;8819;-82
2022/07/04 02:02:55;;;;;;;;;24.67;24.67;31.80;45.70;;;;;;5094846;28;8721;-80
2022/07/04 02:05:22;;;;;;;;;28.00;25.67;31.80;45.80;;;;;;5094641;28;11428;-79
2022/07/04 02:07:48;;;;;;;;;31.00;29.33;31.70;45.90;;;;;;5094531;28;11461;-80
2022/07/04 02:10:14;;;;;;;;;25.00;24.00;31.70;46.00;;;;;;5094636;28;8760;-79
2022/07/04 02:15:24;;;;;;;;;32.67;30.00;31.80;45.90;;;;;;5094723;28;8744;-79
2022/07/04 02:17:50;;;;;;;;;23.33;23.00;31.80;45.80;;;;;;5094392;28;8853;-79
2022/07/04 02:20:16;;;;;;;;;26.00;26.00;31.80;45.90;;;;;;5094813;28;8756;-79
2022/07/04 02:22:42;;;;;;;;;27.67;27.00;31.80;45.90;;;;;;5094489;28;8771;-78
2022/07/04 02:25:08;;;;;;;;;28.67;28.67;31.90;45.90;;;;;;5094637;28;8781;-79
2022/07/04 02:27:34;;;;;;;;;26.67;26.00;31.90;45.70;;;;;;5094593;28;11562;-79
2022/07/04 02:30:00;;;;;;;;;31.33;30.67;31.80;45.70;;;;;;5094221;28;11534;-79
2022/07/04 02:32:26;;;;;;;;;25.67;24.00;31.80;45.60;;;;;;5094283;28;8791;-80
2022/07/04 02:34:51;;;;;;;;;19.33;18.33;31.80;45.60;;;;;;5094396;28;8787;-78
2022/07/04 02:37:17;;;;;;;;;18.00;18.00;31.70;45.70;;;;;;5094283;28;8870;-79
2022/07/04 02:39:43;;;;;;;;;28.67;28.67;31.60;46.00;;;;;;5095368;28;9374;-79
2022/07/04 02:42:09;;;;;;;;;27.00;26.00;31.60;45.90;;;;;;5098635;28;8818;-80
2022/07/04 02:44:35;;;;;;;;;24.67;22.67;31.50;46.30;;;;;;5098314;28;8779;-79
2022/07/04 02:47:00;;;;;;;;;23.67;23.00;31.50;46.50;;;;;;5098281;28;8899;-79
2022/07/04 02:49:26;;;;;;;;;24.67;24.67;31.60;46.40;;;;;;5098802;28;8791;-79
2022/07/04 02:51:52;;;;;;;;;24.67;24.67;31.50;46.20;;;;;;5098386;28;8736;-80
2022/07/04 02:54:19;;;;;;;;;25.33;24.67;31.60;46.20;;;;;;5080445;28;11446;-79
2022/07/04 02:56:44;;;;;;;;;26.00;26.00;31.50;46.30;;;;;;5098209;28;8771;-79
2022/07/04 02:59:10;;;;;;;;;27.00;27.00;31.60;46.40;;;;;;5098232;28;11575;-79
2022/07/04 03:01:36;;;;;;;;;26.67;25.67;31.50;46.20;;;;;;5098162;28;9438;-81
2022/07/04 03:04:05;;;;;;;;;22.67;22.67;31.50;46.30;;;;;;5097991;28;8752;-78
2022/07/04 03:06:31;;;;;;;;;26.00;25.00;31.50;46.30;;;;;;5097815;28;11575;-79
2022/07/04 03:08:57;;;;;;;;;25.00;25.00;31.50;46.10;;;;;;5097752;28;11549;-79
2022/07/04 03:11:23;;;;;;;;;23.00;23.00;31.60;45.70;;;;;;5100272;28;8790;-78
2022/07/04 03:13:49;;;;;;;;;26.67;24.00;31.60;45.50;;;;;;5098106;28;8756;-78
2022/07/04 03:16:15;;;;;;;;;24.33;24.00;31.60;45.40;;;;;;5097848;28;8755;-81
2022/07/04 03:18:40;;;;;;;;;24.67;23.67;31.70;45.40;;;;;;5097440;28;8936;-79
2022/07/04 03:21:06;;;;;;;;;21.25;20.50;31.70;45.30;;;;;;5097964;28;8780;-79
2022/07/04 03:23:33;;;;;;;;;25.00;24.00;31.70;45.10;;;;;;5098221;28;8782;-80
2022/07/04 03:25:59;;;;;;;;;24.67;23.67;31.70;45.00;;;;;;5097485;28;8768;-78
2022/07/04 03:28:26;;;;;;;;;28.00;28.00;31.70;44.80;;;;;;5097444;28;11450;-78
2022/07/04 03:30:52;;;;;;;;;22.33;22.33;31.60;45.00;;;;;;5097470;28;11411;-79
2022/07/04 03:33:18;;;;;;;;;25.67;24.33;31.60;44.60;;;;;;5097335;28;11470;-79
2022/07/04 03:35:44;;;;;;;;;25.33;24.33;31.60;44.60;;;;;;5097224;28;11460;-79
2022/07/04 03:38:10;;;;;;;;;25.33;23.67;31.60;44.40;;;;;;5097386;28;8810;-79
2022/07/04 03:40:38;;;;;;;;;23.33;23.33;31.60;44.40;;;;;;5097206;28;12118;-79
2022/07/04 03:43:06;;;;;;;;;28.00;25.67;31.60;44.50;;;;;;5097146;28;11443;-79
2022/07/04 03:45:32;;;;;;;;;24.67;23.33;31.60;44.50;;;;;;5097086;28;11471;-79
2022/07/04 03:47:58;;;;;;;;;23.00;22.33;31.60;44.60;;;;;;5097088;28;11506;-80
2022/07/04 03:50:24;;;;;;;;;24.00;23.00;31.50;44.70;;;;;;5096706;28;11445;-78
2022/07/04 03:52:50;;;;;;;;;27.00;25.00;31.40;45.10;;;;;;5097277;28;8763;-81
2022/07/04 03:55:16;;;;;;;;;28.00;27.67;31.30;45.40;;;;;;5096932;28;8792;-78
2022/07/04 03:57:41;;;;;;;;;22.33;21.00;31.30;45.70;;;;;;5097016;28;8785;-80
2022/07/04 04:00:09;;;;;;;;;22.33;21.67;31.30;45.90;;;;;;5097191;28;8744;-79
2022/07/04 04:02:36;;;;;;;;;20.00;19.00;31.30;45.80;;;;;;5096832;28;8763;-78
2022/07/04 04:07:47;;;;;;;;;24.33;24.00;31.30;45.30;;;;;;5096811;28;11542;-79
2022/07/04 04:10:13;;;;;;;;;26.67;26.67;31.40;45.20;;;;;;5096834;28;11569;-79
2022/07/04 04:12:39;;;;;;;;;23.00;23.00;31.40;45.50;;;;;;5096845;28;8756;-79
2022/07/04 04:15:06;;;;;;;;;23.00;22.00;31.40;45.50;;;;;;5096732;28;8795;-81
2022/07/04 04:17:31;;;;;;;;;21.50;20.50;31.40;45.60;;;;;;5096431;28;8823;-81
2022/07/04 04:19:57;;;;;;;;;22.00;22.00;31.50;45.80;;;;;;5096847;28;11519;-80
2022/07/04 04:22:23;;;;;;;;;24.00;24.00;31.50;46.00;;;;;;5096748;28;9464;-80
2022/07/04 04:24:49;;;;;;;;;25.33;24.67;31.50;45.60;;;;;;5096561;28;8764;-80
2022/07/04 04:27:15;;;;;;;;;26.33;25.33;31.40;45.80;;;;;;5079794;28;8776;-79
2022/07/04 04:29:40;;;;;;;;;23.00;23.00;31.30;46.00;;;;;;5097794;28;8768;-78
2022/07/04 04:32:07;;;;;;;;;22.67;22.67;31.20;46.10;;;;;;5096715;28;8843;-81
2022/07/04 04:34:33;;;;;;;;;18.33;18.00;31.20;46.40;;;;;;5096493;28;8775;-79
2022/07/04 04:36:59;;;;;;;;;21.67;21.33;31.00;47.20;;;;;;5096350;28;11460;-78
2022/07/04 04:39:25;;;;;;;;;22.33;22.33;30.60;48.40;;;;;;5096480;28;11504;-80
2022/07/04 04:41:51;;;;;;;;;27.00;26.00;30.70;47.90;;;;;;5096130;28;11460;-81
2022/07/04 04:44:19;;;;;;;;;30.00;29.00;30.90;47.60;;;;;;5078216;28;8760;-79
2022/07/04 04:46:45;;;;;;;;;24.67;24.67;31.00;47.60;;;;;;5096339;28;8782;-80
2022/07/04 04:49:11;;;;;;;;;24.67;24.67;31.00;47.70;;;;;;5096186;28;11470;-80
2022/07/04 04:51:38;;;;;;;;;28.00;27.67;31.00;48.20;;;;;;5096009;28;11467;-81
2022/07/04 04:54:04;;;;;;;;;27.33;27.33;31.00;48.50;;;;;;5096110;28;8743;-80
2022/07/04 04:56:30;;;;;;;;;26.00;24.33;30.70;49.50;;;;;;5096261;28;11466;-81
2022/07/04 04:58:56;;;;;;;;;25.33;25.33;30.50;50.00;;;;;;5095706;28;11620;-78
2022/07/04 05:01:22;;;;;;;;;26.33;26.33;30.40;50.40;;;;;;5095621;28;8756;-78
2022/07/04 05:03:47;;;;;;;;;21.67;21.67;30.60;50.00;;;;;;5095331;28;8775;-79
2022/07/04 05:06:13;;;;;;;;;23.67;23.67;30.70;49.50;;;;;;5095562;28;9393;-78
2022/07/04 05:08:39;;;;;;;;;24.67;24.67;30.70;49.40;;;;;;5095676;28;8830;-80
2022/07/04 05:11:05;;;;;;;;;27.00;27.00;30.80;49.50;;;;;;5095724;28;8782;-80
2022/07/04 05:13:31;;;;;;;;;22.00;22.00;30.70;49.60;;;;;;5095564;28;8779;-82
2022/07/04 05:15:57;;;;;;;;;25.00;25.00;30.60;50.10;;;;;;5095526;28;11444;-82
2022/07/04 05:18:23;;;;;;;;;24.00;23.00;30.50;50.20;;;;;;5095446;28;11503;-79
2022/07/04 05:20:49;;;;;;;;;23.67;23.00;30.80;49.70;;;;;;5096461;28;8768;-80
2022/07/04 05:23:15;;;;;;;;;27.67;27.33;31.00;49.30;;;;;;5095811;28;8744;-78
2022/07/04 05:25:40;;;;;;;;;26.33;24.33;31.10;48.70;;;;;;5095558;28;8775;-80
2022/07/04 05:28:06;;;;;;;;;25.00;25.00;31.20;48.30;;;;;;5096689;28;8794;-79
2022/07/04 05:30:32;;;;;;;;;27.00;25.67;31.20;47.60;;;;;;5097552;28;8792;-80
2022/07/04 05:33:00;;;;;;;;;30.00;29.00;31.20;47.60;;;;;;5077517;28;8772;-80
2022/07/04 05:35:29;;;;;;;;;25.00;24.33;31.20;47.50;;;;;;5095310;28;8837;-79
2022/07/04 05:37:55;;;;;;;;;23.33;22.67;31.20;47.40;;;;;;5095247;28;11468;-81
2022/07/04 05:40:23;;;;;;;;;22.33;22.33;31.10;47.40;;;;;;5094867;28;12161;-81
2022/07/04 05:42:49;;;;;;;;;24.00;24.00;31.20;47.30;;;;;;5094948;28;8882;-80
2022/07/04 05:45:16;;;;;;;;;17.67;17.67;31.20;47.00;;;;;;5095114;28;12112;-78
2022/07/04 05:47:41;;;;;;;;;20.00;20.00;31.20;46.60;;;;;;5094828;28;11465;-77
2022/07/04 05:50:09;;;;;;;;;28.67;26.00;31.10;46.70;;;;;;5094983;28;11478;-78
2022/07/04 05:52:35;;;;;;;;;20.00;20.00;31.20;46.80;;;;;;5094948;28;8832;-79
2022/07/04 05:55:01;;;;;;;;;26.67;26.00;31.30;46.80;;;;;;5094951;28;11433;-80
2022/07/04 05:57:27;;;;;;;;;24.00;23.33;31.20;46.60;;;;;;5076795;28;8771;-81
2022/07/04 05:59:53;;;;;;;;;25.33;23.67;31.20;46.90;;;;;;5094850;28;8787;-79
2022/07/04 06:02:19;;;;;;;;;24.33;24.33;31.20;46.80;;;;;;5094898;28;11449;-80
2022/07/04 06:04:44;;;;;;;;;26.00;26.00;31.30;46.60;;;;;;5094998;28;9409;-80
2022/07/04 06:07:10;;;;;;;;;27.67;25.33;31.40;46.40;;;;;;5094966;28;8867;-78
2022/07/04 06:09:36;;;;;;;;;25.33;25.33;31.40;47.40;;;;;;5094911;28;8779;-80
2022/07/04 06:12:04;;;;;;;;;25.00;21.67;31.40;46.60;;;;;;5094542;28;8772;-81
2022/07/04 06:14:30;;;;;;;;;24.33;24.33;31.40;46.40;;;;;;5094453;28;8772;-78
2022/07/04 06:16:56;;;;;;;;;23.00;23.00;31.50;46.50;;;;;;5094421;28;11452;-79
2022/07/04 06:19:22;;;;;;;;;32.33;28.33;31.40;46.70;;;;;;5094173;28;11555;-78
2022/07/04 06:21:48;;;;;;;;;25.00;24.67;31.40;46.80;;;;;;5094464;28;8802;-78
2022/07/04 06:24:14;;;;;;;;;26.33;26.33;31.40;46.80;;;;;;5094637;28;8849;-78
2022/07/04 06:26:40;;;;;;;;;25.67;25.67;31.30;47.00;;;;;;5094687;28;8763;-78
2022/07/04 06:29:06;;;;;;;;;26.00;26.00;31.20;47.10;;;;;;5094211;28;11496;-80
2022/07/04 06:31:31;;;;;;;;;26.33;24.00;31.10;47.30;;;;;;5094421;28;8768;-81
2022/07/04 06:36:42;;;;;;;;;28.33;26.00;31.00;47.60;;;;;;5094516;28;8763;-80
2022/07/04 06:39:08;;;;;;;;;28.33;27.67;30.90;47.80;;;;;;5094037;28;11538;-79
2022/07/04 06:41:33;;;;;;;;;27.67;26.67;30.90;48.00;;;;;;5094218;28;8778;-79
2022/07/04 06:43:59;;;;;;;;;27.67;27.67;30.90;48.10;;;;;;5094746;28;8760;-80
2022/07/04 06:46:25;;;;;;;;;25.00;25.00;31.00;47.80;;;;;;5094205;28;8761;-81
2022/07/04 06:48:51;;;;;;;;;27.33;25.33;31.00;47.40;;;;;;5094484;28;8811;-80
2022/07/04 06:51:17;;;;;;;;;29.67;26.67;31.10;47.40;;;;;;5094399;28;8763;-80
2022/07/04 06:53:45;;;;;;;;;23.00;23.00;31.20;46.90;;;;;;5094402;28;9428;-79
2022/07/04 06:56:11;;;;;;;;;26.33;25.67;31.20;46.70;;;;;;5094041;28;8779;-79
2022/07/04 06:58:37;;;;;;;;;25.33;25.33;31.20;46.60;;;;;;5094146;28;11466;-81
2022/07/04 07:01:03;;;;;;;;;24.33;24.33;31.20;46.50;;;;;;5094004;28;12067;-79
2022/07/04 07:03:29;;;;;;;;;24.00;24.00;31.00;46.40;;;;;;5094282;28;8768;-79
2022/07/04 07:05:56;;;;;;;;;24.67;24.67;31.00;46.70;;;;;;5093962;28;8894;-80
2022/07/04 07:08:22;;;;;;;;;25.00;25.00;31.00;47.20;;;;;;5076100;28;8904;-80
2022/07/04 07:10:48;;;;;;;;;28.33;27.33;31.00;47.20;;;;;;5094306;28;8759;-79
2022/07/04 07:13:14;;;;;;;;;30.00;29.33;31.10;47.80;;;;;;5094953;28;8764;-77
2022/07/04 07:15:40;;;;;;;;;30.67;29.33;31.00;48.00;;;;;;5094688;28;12118;-78
2022/07/04 07:18:06;;;;;;;;;24.67;24.33;31.00;48.20;;;;;;5093495;28;8920;-79
2022/07/04 07:20:33;;;;;;;;;28.00;26.67;31.00;47.80;;;;;;5094204;28;8760;-79
2022/07/04 07:23:01;;;;;;;;;26.00;22.33;31.00;47.30;;;;;;5093744;28;12035;-79
2022/07/04 07:25:27;;;;;;;;;26.67;26.67;31.00;47.60;;;;;;5094405;28;11462;-81
2022/07/04 07:27:53;;;;;;;;;23.00;21.67;31.10;47.70;;;;;;5097319;28;11453;-80
2022/07/04 07:30:19;;;;;;;;;28.67;28.33;31.00;47.90;;;;;;5097368;28;8760;-81
2022/07/04 07:32:48;;;;;;;;;29.00;27.67;31.00;48.20;;;;;;5097494;28;9231;-78
2022/07/04 07:35:14;;;;;;;;;21.00;21.00;31.00;49.30;;;;;;5097708;28;11485;-81
2022/07/04 07:37:41;;;;;;;;;22.67;22.00;30.90;48.50;;;;;;5097377;28;11450;-80
2022/07/04 07:40:08;;;;;;;;;30.33;30.00;31.00;48.00;;;;;;5097522;28;11456;-82
2022/07/04 07:42:33;;;;;;;;;29.00;27.33;30.90;47.80;;;;;;5097312;28;8925;-78
2022/07/04 07:44:59;;;;;;;;;28.33;28.33;31.00;48.50;;;;;;5097361;28;11436;-78
2022/07/04 07:47:25;;;;;;;;;28.33;27.00;30.80;48.80;;;;;;5097294;28;8772;-82
2022/07/04 07:49:51;;;;;;;;;28.67;27.00;30.80;49.10;;;;;;5097368;28;8948;-80
2022/07/04 07:52:17;;;;;;;;;28.67;28.00;30.60;49.30;;;;;;5097077;28;9432;-83
2022/07/04 07:54:43;;;;;;;;;24.00;23.67;30.60;50.20;;;;;;5097320;28;8767;-81
2022/07/04 07:57:09;;;;;;;;;31.33;30.00;30.70;48.80;;;;;;5096904;28;11478;-80
2022/07/04 07:59:38;;;;;;;;;29.00;28.33;30.80;49.20;;;;;;5097165;28;8821;-82
2022/07/04 08:02:04;;;;;;;;;25.67;25.33;30.90;49.90;;;;;;5097139;28;8760;-80
2022/07/04 08:04:35;;;;;;;;;34.00;32.00;31.00;49.70;;;;;;5096877;28;8767;-80
2022/07/04 08:07:06;;;;;;;;;29.67;28.33;31.00;49.10;;;;;;5079066;28;8767;-79
2022/07/04 08:09:33;;;;;;;;;30.67;30.00;31.00;48.30;;;;;;5096745;28;8775;-80
2022/07/04 08:11:59;;;;;;;;;32.67;31.67;31.00;48.00;;;;;;5096684;28;8869;-81
2022/07/04 08:14:26;;;;;;;;;48.67;40.00;31.10;48.00;;;;;;5096691;28;8801;-80
2022/07/04 08:16:52;;;;;;;;;29.00;27.67;31.20;47.90;;;;;;5096976;28;8823;-79
2022/07/04 08:19:18;;;;;;;;;31.67;30.00;31.20;48.00;;;;;;5096272;28;8828;-81
2022/07/04 08:21:46;;;;;;;;;32.67;31.67;31.30;48.20;;;;;;5096749;28;8791;-81
2022/07/04 08:24:14;;;;;;;;;29.33;28.00;31.30;47.90;;;;;;5097029;28;8794;-81
2022/07/04 08:26:39;;;;;;;;;27.00;27.00;31.30;47.80;;;;;;5096513;28;11429;-81
2022/07/04 08:29:18;;;;;;;;;21.00;20.67;31.30;47.70;;;;;;5096715;28;11470;-80
2022/07/04 08:31:44;;;;;;;;;28.67;28.67;31.50;47.30;;;;;;5096546;28;8778;-80
2022/07/04 08:34:09;;;;;;;;;26.00;25.00;31.40;47.10;;;;;;5095964;28;11438;-81
2022/07/04 08:36:35;;;;;;;;;27.33;27.33;31.50;47.10;;;;;;5096137;28;8779;-81
2022/07/04 08:39:01;;;;;;;;;27.00;27.00;31.40;47.80;;;;;;5096115;28;8799;-81
2022/07/04 08:41:32;;;;;;;;;23.33;23.33;31.40;47.80;;;;;;5096303;28;8772;-80
2022/07/04 08:43:58;;;;;;;;;26.33;24.67;31.50;47.10;;;;;;5096098;28;8765;-80
2022/07/04 08:46:27;;;;;;;;;26.67;26.67;31.60;47.10;;;;;;5095874;28;11444;-82
2022/07/04 08:48:56;;;;;;;;;25.00;25.00;31.60;46.20;;;;;;5096219;28;8864;-78
2022/07/04 08:51:44;;;;;;;;;28.67;26.67;31.60;46.20;;;;;;5077770;28;11496;-79
2022/07/04 08:59:45;;;;;;;;;23.67;22.00;31.80;45.00;;;;;;5095675;28;12098;-80
2022/07/04 09:02:13;;;;;;;;;22.33;22.33;31.80;44.50;;;;;;5095530;28;11412;-79
2022/07/04 09:04:40;;;;;;;;;20.00;20.00;31.80;44.40;;;;;;5095475;28;11417;-81
2022/07/04 09:07:06;;;;;;;;;18.33;18.33;31.80;44.00;;;;;;5095760;28;11445;-78
2022/07/04 09:09:33;;;;;;;;;26.00;22.33;31.90;43.70;;;;;;5095713;28;11438;-78
2022/07/04 09:11:59;;;;;;;;;22.67;21.33;32.00;43.40;;;;;;5077285;28;11538;-78
2022/07/04 09:14:24;;;;;;;;;24.00;24.00;32.00;43.50;;;;;;5095390;28;12101;-79
2022/07/04 09:16:53;;;;;;;;;25.67;24.00;32.10;44.10;;;;;;5095423;28;8783;-78
2022/07/04 09:19:21;;;;;;;;;28.33;27.00;32.20;43.80;;;;;;5077625;28;8957;-81
2022/07/04 09:21:48;;;;;;;;;31.33;30.00;32.30;43.40;;;;;;5095528;28;12072;-79
2022/07/04 09:24:14;;;;;;;;;23.00;20.67;32.10;43.30;;;;;;5077613;28;8760;-81
2022/07/04 09:26:44;;;;;;;;;25.50;25.50;32.20;42.80;;;;;;5077172;28;11923;-80
2022/07/04 09:29:10;;;;;;;;;20.67;20.67;32.20;41.40;;;;;;5095391;28;12113;-79
2022/07/04 09:31:37;;;;;;;;;22.00;22.00;32.30;41.70;;;;;;5095365;28;11461;-82
2022/07/04 09:34:06;;;;;;;;;24.75;21.25;32.40;41.10;;;;;;5095032;28;8822;-80
2022/07/04 09:36:44;;;;;;;;;23.00;23.00;32.40;40.00;;;;;;5095273;28;11439;-81
2022/07/04 09:39:14;;;;;;;;;23.33;23.33;32.50;40.00;;;;;;5094882;28;11515;-80
2022/07/04 09:42:00;;;;;;;;;22.50;22.50;32.60;40.60;;;;;;5076888;28;12118;-80
2022/07/04 09:44:34;;;;;;;;;23.67;23.67;32.70;40.20;;;;;;5094956;28;11422;-81
2022/07/04 09:47:25;;;;;;;;;20.00;20.00;32.80;40.10;;;;;;5094733;28;11548;-80
2022/07/04 09:50:07;;;;;;;;;21.00;21.00;32.80;38.80;;;;;;5094494;28;11567;-80
2022/07/04 09:52:46;;;;;;;;;20.33;19.67;32.80;38.30;;;;;;5095055;28;12156;-82
2022/07/04 09:55:12;;;;;;;;;23.33;23.33;32.90;38.90;;;;;;5094958;28;11525;-80
2022/07/04 09:57:37;;;;;;;;;31.33;30.33;33.00;39.50;;;;;;5076663;28;12091;-81
2022/07/04 10:00:24;;;;;;;;;23.00;23.00;33.00;39.10;;;;;;5094399;28;8834;-81
2022/07/04 10:02:51;;;;;;;;;32.00;31.00;33.10;39.30;;;;;;5094585;28;8778;-80
2022/07/04 10:05:27;;;;;;;;;21.50;21.00;33.20;39.10;;;;;;5094505;28;8756;-81
2022/07/04 10:07:55;;;;;;;;;23.75;23.25;33.30;39.10;;;;;;5094331;28;11453;-79
2022/07/04 10:10:34;;;;;;;;;24.67;24.67;33.30;39.80;;;;;;5094468;28;11470;-79
2022/07/04 10:13:11;;;;;;;;;22.25;21.75;33.40;39.20;;;;;;5094770;28;11423;-80
2022/07/04 10:15:42;;;;;;;;;21.75;19.50;33.50;38.70;;;;;;5094334;28;11487;-80
2022/07/04 10:18:09;;;;;;;;;18.75;18.75;33.60;39.00;;;;;;5094017;28;11583;-80
2022/07/04 10:20:36;;;;;;;;;22.67;22.67;33.60;38.50;;;;;;5094257;28;11443;-80
2022/07/04 10:23:03;;;;;;;;;15.75;15.75;33.70;39.00;;;;;;5094253;28;11430;-79
2022/07/04 10:25:29;;;;;;;;;17.33;17.33;33.70;38.30;;;;;;5094277;28;12085;-79
2022/07/04 10:27:56;;;;;;;;;20.33;20.33;33.70;37.30;;;;;;5094323;28;11444;-82
2022/07/04 10:30:27;;;;;;;;;18.33;16.00;33.80;38.00;;;;;;5094159;28;12169;-80
2022/07/04 10:32:57;;;;;;;;;20.50;20.00;33.90;38.10;;;;;;5094359;28;11433;-79
2022/07/04 10:35:54;;;;;;;;;14.50;14.50;34.00;38.00;;;;;;5094213;28;11480;-81
2022/07/04 10:38:27;;;;;;;;;23.75;23.75;34.00;36.90;;;;;;5093983;28;11474;-79
2022/07/04 10:41:07;;;;;;;;;21.00;21.00;34.10;37.00;;;;;;5094358;28;11475;-80
2022/07/04 10:46:07;;;;;;;;;19.75;18.25;34.30;37.40;;;;;;5094511;28;11421;-80
2022/07/04 10:48:33;;;;;;;;;19.75;19.00;34.30;36.60;;;;;;5094346;28;11500;-80
2022/07/04 10:51:05;;;;;;;;;18.00;17.00;34.40;35.50;;;;;;5094383;28;11465;-81
2022/07/04 10:53:32;;;;;;;;;20.75;20.50;34.50;35.40;;;;;;5094041;28;11438;-82
2022/07/04 10:56:39;;;;;;;;;18.75;18.75;34.60;37.10;;;;;;5093987;28;11447;-81
2022/07/04 10:59:19;;;;;;;;;23.00;23.00;34.70;36.70;;;;;;5011899;28;11665;-80
2022/07/04 11:01:49;;;;;;;;;20.33;20.33;34.80;36.90;;;;;;5015906;28;11479;-80
2022/07/04 11:04:47;;;;;;;;;18.33;17.67;34.90;36.70;;;;;;5020564;28;11505;-80
2022/07/04 11:07:18;;;;;;;;;24.00;22.67;34.90;35.40;;;;;;5015882;28;11559;-80
2022/07/04 11:09:44;;;;;;;;;19.67;19.67;34.60;35.80;;;;;;5015680;28;11576;-81
2022/07/04 11:12:14;;;;;;;;;21.75;21.75;34.80;35.70;;;;;;5015730;28;11472;-81
2022/07/04 11:14:47;;;;;;;;;19.00;19.00;34.90;35.90;;;;;;5015494;28;11475;-82
2022/07/04 11:17:34;;;;;;;;;26.50;22.50;35.00;36.20;;;;;;5015553;28;11489;-80
2022/07/04 11:20:00;;;;;;;;;22.67;21.67;35.20;36.30;;;;;;5015562;28;11525;-81
2022/07/04 11:22:26;;;;;;;;;17.25;15.75;35.40;35.90;;;;;;5015425;28;11524;-80
2022/07/04 11:24:53;;;;;;;;;23.00;23.00;35.50;35.70;;;;;;5015435;28;11511;-81
2022/07/04 11:27:22;;;;;;;;;21.00;19.75;35.60;35.50;;;;;;5015425;28;8802;-80
2022/07/04 11:29:53;;;;;;;;;22.00;22.00;35.70;35.10;;;;;;4998936;28;11513;-80
2022/07/04 11:32:20;;;;;;;;;23.33;23.33;35.80;35.40;;;;;;5015189;28;11523;-80
2022/07/04 11:34:46;;;;;;;;;19.50;19.50;35.90;35.50;;;;;;5064718;28;11469;-81
2022/07/04 11:37:12;;;;;;;;;17.00;17.00;36.00;35.60;;;;;;5097290;28;12110;-82
2022/07/04 11:39:38;;;;;;;;;23.25;23.25;36.00;34.80;;;;;;5097323;28;11536;-82
2022/07/04 11:45:05;;;;;;;;;21.75;21.75;36.50;35.20;;;;;;5097407;28;8870;-82
2022/07/04 11:47:39;;;;;;;;;18.25;18.25;37.50;34.20;;;;;;5097255;28;11475;-81
2022/07/04 11:50:10;;;;;;;;;19.75;19.75;39.10;31.20;;;;;;5096988;28;11447;-80
2022/07/04 11:52:44;;;;;;;;;15.50;15.50;40.50;29.70;;;;;;5096988;28;11452;-82
2022/07/04 11:55:16;;;;;;;;;17.25;17.25;42.00;28.30;;;;;;5099227;28;11455;-80
2022/07/04 11:57:47;;;;;;;;;19.75;19.75;42.40;26.90;;;;;;5097098;28;12214;-78
2022/07/04 12:00:14;;;;;;;;;20.50;20.50;42.40;26.80;;;;;;5097139;28;11430;-79
2022/07/04 12:02:41;;;;;;;;;18.00;18.00;42.70;26.80;;;;;;5078834;28;12160;-81
2022/07/04 12:05:10;;;;;;;;;18.75;18.75;42.70;26.60;;;;;;5096847;28;11439;-80
2022/07/04 12:07:38;;;;;;;;;21.50;21.50;42.20;26.70;;;;;;5096896;28;11466;-79
2022/07/04 12:10:16;;;;;;;;;17.00;17.00;41.60;27.30;;;;;;5096682;28;11450;-80
2022/07/04 12:12:56;;;;;;;;;19.25;19.25;41.00;27.80;;;;;;5096549;28;11464;-80
2022/07/04 12:15:23;;;;;;;;;16.50;16.50;41.30;27.40;;;;;;5096868;28;11599;-80
2022/07/04 12:17:56;;;;;;;;;17.25;17.25;42.40;27.10;;;;;;5096318;28;11495;-80
2022/07/04 12:20:23;;;;;;;;;16.25;16.25;43.60;25.40;;;;;;5096770;28;11441;-82
2022/07/04 12:22:52;;;;;;;;;14.00;14.00;43.80;24.50;;;;;;5078703;28;11446;-82
2022/07/04 12:25:24;;;;;;;;;14.25;14.25;44.50;24.00;;;;;;5096736;28;11472;-81
2022/07/04 12:28:01;;;;;;;;;17.00;17.00;45.80;22.90;;;;;;5096660;28;11531;-82
2022/07/04 12:30:30;;;;;;;;;17.00;17.00;46.90;22.40;;;;;;5096357;28;11454;-82
2022/07/04 12:33:04;;;;;;;;;19.00;19.00;46.80;21.50;;;;;;5096310;28;11469;-81
2022/07/04 12:35:49;;;;;;;;;11.50;11.50;46.50;21.70;;;;;;5094859;28;11436;-80
2022/07/04 12:38:21;;;;;;;;;16.00;16.00;47.00;22.00;;;;;;5078156;28;11472;-82
2022/07/04 12:40:58;;;;;;;;;16.67;16.67;48.10;21.20;;;;;;5096124;28;11535;-82
2022/07/04 12:43:46;;;;;;;;;16.00;16.00;48.90;20.50;;;;;;5096175;28;11448;-81
2022/07/04 12:46:15;;;;;;;;;15.67;15.67;49.50;20.00;;;;;;5095744;28;11545;-82
2022/07/04 12:48:42;;;;;;;;;14.67;14.67;49.70;19.70;;;;;;5096216;28;11469;-82
2022/07/04 12:51:15;;;;;;;;;14.00;14.00;50.10;19.90;;;;;;5095840;28;11473;-81
2022/07/04 12:53:44;;;;;;;;;16.00;16.00;50.50;19.30;;;;;;5095986;28;11431;-81
2022/07/04 12:56:27;;;;;;;;;18.00;18.00;51.20;19.10;;;;;;5095782;28;11482;-81